Time;durP1;ratioP1;P1;durP2;ratioP2;P2;SDS_P1;SDS_P2;PMS_P1;PMS_P2;Temp;Humidity;BMP_temperature;BMP_pressure;BME280_temperature;BME280_humidity;BME280_pressure;Samples;Min_cycle;Max_cycle;Signal;HPM_P1;HPM_P2
2022/07/31 00:02:12;;;;;;;3.00;2.80;;;27.10;51.70;;;;;;5097395;28;20418;-82
2022/07/31 00:04:45;;;;;;;3.37;3.10;;;27.10;51.70;;;;;;5116107;28;20468;-82
2022/07/31 00:07:16;;;;;;;3.27;3.07;;;27.10;51.70;;;;;;5080095;28;20428;-81
2022/07/31 00:09:59;;;;;;;3.57;3.27;;;27.10;51.70;;;;;;5098067;28;20459;-81
2022/07/31 00:12:33;;;;;;;3.83;3.53;;;27.10;51.60;;;;;;5097951;28;20427;-81
2022/07/31 00:15:09;;;;;;;3.70;3.40;;;27.10;51.60;;;;;;5099559;28;20400;-81
2022/07/31 00:17:48;;;;;;;4.93;3.90;;;27.10;51.60;;;;;;5098117;28;20420;-81
2022/07/31 00:20:15;;;;;;;3.20;3.00;;;27.10;51.60;;;;;;5098705;28;20419;-81
2022/07/31 00:22:49;;;;;;;3.43;3.23;;;27.10;51.60;;;;;;5097401;28;20459;-81
2022/07/31 00:25:19;;;;;;;4.10;3.80;;;27.10;51.60;;;;;;5098606;28;20419;-81
2022/07/31 00:27:45;;;;;;;4.07;3.77;;;27.10;51.60;;;;;;5082350;28;20594;-79
2022/07/31 00:30:15;;;;;;;3.90;3.60;;;27.10;51.60;;;;;;5113808;28;20459;-80
2022/07/31 00:32:51;;;;;;;3.40;3.10;;;27.10;51.50;;;;;;5080448;28;20869;-80
2022/07/31 00:35:22;;;;;;;3.37;3.07;;;27.10;51.50;;;;;;5115471;28;20396;-79
2022/07/31 00:37:56;;;;;;;3.63;3.33;;;27.10;51.50;;;;;;5115130;28;20432;-79
2022/07/31 00:40:26;;;;;;;3.40;3.10;;;27.10;51.40;;;;;;5097242;28;20465;-80
2022/07/31 00:42:54;;;;;;;3.00;2.80;;;27.00;51.30;;;;;;5097761;28;20396;-79
2022/07/31 00:45:20;;;;;;;3.70;3.40;;;27.00;51.30;;;;;;5111437;28;20408;-79
2022/07/31 00:47:46;;;;;;;3.53;3.23;;;27.00;51.30;;;;;;5094345;28;20446;-80
2022/07/31 00:50:17;;;;;;;3.20;3.00;;;27.00;51.30;;;;;;5093849;28;20459;-80
2022/07/31 00:52:44;;;;;;;3.00;2.80;;;27.00;51.20;;;;;;5094042;28;20412;-80
2022/07/31 00:55:10;;;;;;;4.53;2.87;;;27.00;51.30;;;;;;5094906;28;20427;-81
2022/07/31 00:57:36;;;;;;;3.33;3.07;;;27.00;51.20;;;;;;5094504;28;20479;-80
2022/07/31 01:00:04;;;;;;;3.10;2.90;;;27.00;51.20;;;;;;5112304;28;20449;-80
2022/07/31 01:02:30;;;;;;;5.03;3.47;;;27.00;51.20;;;;;;5112373;28;20408;-80
2022/07/31 01:04:57;;;;;;;3.73;3.43;;;27.00;51.20;;;;;;5094525;28;20411;-79
2022/07/31 01:07:24;;;;;;;3.63;3.33;;;27.00;51.20;;;;;;5094331;28;20419;-80
2022/07/31 01:09:52;;;;;;;3.43;3.13;;;27.00;51.20;;;;;;5093930;28;20460;-80
2022/07/31 01:12:36;;;;;;;3.97;3.67;;;27.00;51.20;;;;;;5112074;28;20712;-80
2022/07/31 01:15:09;;;;;;;4.17;3.80;;;27.00;51.20;;;;;;5094340;28;20445;-80
2022/07/31 01:17:40;;;;;;;4.10;3.80;;;26.90;51.20;;;;;;5111641;28;20408;-80
2022/07/31 01:20:07;;;;;;;3.90;3.60;;;26.90;51.20;;;;;;5094309;28;20438;-80
2022/07/31 01:23:12;;;;;;;3.53;3.20;;;26.90;51.20;;;;;;5093670;28;20420;-81
2022/07/31 01:25:52;;;;;;;3.87;3.57;;;26.90;51.20;;;;;;5110994;28;20392;-80
2022/07/31 01:28:36;;;;;;;3.80;3.50;;;26.90;51.20;;;;;;5073056;28;20416;-80
2022/07/31 01:31:13;;;;;;;4.47;4.17;;;26.90;51.20;;;;;;5073266;28;20479;-80
2022/07/31 01:34:07;;;;;;;4.23;3.83;;;26.90;51.20;;;;;;5088172;28;20392;-80
2022/07/31 01:36:38;;;;;;;4.23;3.90;;;26.90;51.20;;;;;;5075407;28;20408;-80
2022/07/31 01:39:04;;;;;;;4.37;4.03;;;26.90;51.20;;;;;;5086442;28;20443;-80
2022/07/31 01:41:39;;;;;;;5.00;4.60;;;26.90;51.20;;;;;;5092202;28;20412;-80
2022/07/31 01:44:06;;;;;;;4.43;4.03;;;26.90;51.20;;;;;;5073822;28;20431;-80
2022/07/31 01:46:35;;;;;;;5.13;4.63;;;26.90;51.20;;;;;;5076795;28;20516;-80
2022/07/31 01:49:02;;;;;;;5.17;4.77;;;26.90;51.20;;;;;;5089585;28;20455;-80
2022/07/31 01:51:29;;;;;;;4.77;4.37;;;26.90;51.20;;;;;;5095229;28;20401;-80
2022/07/31 01:53:56;;;;;;;5.00;4.50;;;26.90;51.20;;;;;;5094976;28;20405;-80
2022/07/31 01:56:23;;;;;;;4.60;4.20;;;26.90;51.20;;;;;;5077556;28;20846;-80
2022/07/31 01:58:50;;;;;;;5.13;4.47;;;26.90;51.20;;;;;;5094730;28;20403;-80
2022/07/31 02:01:18;;;;;;;4.27;3.87;;;26.90;51.10;;;;;;5077111;28;20416;-80
2022/07/31 02:03:48;;;;;;;4.50;4.10;;;26.90;51.10;;;;;;5094594;28;20488;-80
2022/07/31 02:06:17;;;;;;;4.67;4.27;;;26.90;51.10;;;;;;5076861;28;20419;-80
2022/07/31 02:08:49;;;;;;;4.20;3.90;;;26.90;51.10;;;;;;5079157;28;20428;-81
2022/07/31 02:11:18;;;;;;;4.77;4.37;;;26.90;51.10;;;;;;5064390;28;20443;-81
2022/07/31 02:13:48;;;;;;;5.33;4.83;;;26.90;51.10;;;;;;5080703;28;20477;-81
2022/07/31 02:16:20;;;;;;;3.77;3.47;;;26.90;51.10;;;;;;5080607;28;20420;-80
2022/07/31 02:18:51;;;;;;;4.03;3.63;;;26.90;51.10;;;;;;5080914;28;20413;-81
2022/07/31 02:21:23;;;;;;;5.00;4.60;;;26.80;51.00;;;;;;5098638;28;20393;-81
2022/07/31 02:24:08;;;;;;;4.27;3.90;;;26.90;51.10;;;;;;5078192;28;20402;-81
2022/07/31 02:26:36;;;;;;;3.87;3.57;;;26.80;51.10;;;;;;5098264;28;20405;-81
2022/07/31 02:29:18;;;;;;;4.50;4.10;;;26.80;51.10;;;;;;5080831;28;20578;-81
2022/07/31 02:31:54;;;;;;;4.00;3.70;;;26.80;51.10;;;;;;5098357;28;20385;-80
2022/07/31 02:34:35;;;;;;;4.20;3.80;;;26.80;51.10;;;;;;5098139;28;20480;-81
2022/07/31 02:37:15;;;;;;;4.20;3.80;;;26.80;51.10;;;;;;5098092;28;20448;-81
2022/07/31 02:39:46;;;;;;;4.33;3.83;;;26.80;51.10;;;;;;5080851;28;20490;-80
2022/07/31 02:42:20;;;;;;;4.17;3.77;;;26.80;51.10;;;;;;5097577;28;20409;-80
2022/07/31 02:44:47;;;;;;;3.80;3.50;;;26.80;51.10;;;;;;5080477;28;20412;-80
2022/07/31 02:47:16;;;;;;;4.03;3.73;;;26.80;51.10;;;;;;5097562;28;20420;-81
2022/07/31 02:49:44;;;;;;;3.83;3.37;;;26.80;51.10;;;;;;5098262;28;20483;-81
2022/07/31 02:52:13;;;;;;;3.33;3.10;;;26.80;51.00;;;;;;5095077;28;20409;-81
2022/07/31 02:54:43;;;;;;;4.17;3.67;;;26.80;51.00;;;;;;5078261;28;20508;-80
2022/07/31 02:57:19;;;;;;;3.93;3.63;;;26.80;51.00;;;;;;5097290;28;20420;-82
2022/07/31 03:00:00;;;;;;;3.80;3.50;;;26.80;51.00;;;;;;5096519;28;20408;-82
2022/07/31 03:02:30;;;;;;;4.10;3.80;;;26.80;51.00;;;;;;5080856;28;20457;-82
2022/07/31 03:05:00;;;;;;;4.27;3.87;;;26.70;50.90;;;;;;5096533;28;20436;-82
2022/07/31 03:07:32;;;;;;;4.50;4.10;;;26.70;50.90;;;;;;5079440;28;20416;-82
2022/07/31 03:10:01;;;;;;;4.13;3.73;;;26.70;50.90;;;;;;5096277;28;20524;-82
2022/07/31 03:12:32;;;;;;;4.00;3.60;;;26.70;50.90;;;;;;5096759;28;20412;-82
2022/07/31 03:15:01;;;;;;;4.17;3.77;;;26.80;50.90;;;;;;5079084;28;20408;-82
2022/07/31 03:17:30;;;;;;;4.17;3.87;;;26.70;50.90;;;;;;5097083;28;20408;-81
2022/07/31 03:19:59;;;;;;;3.80;3.50;;;26.70;50.90;;;;;;5096673;28;20416;-82
2022/07/31 03:22:30;;;;;;;3.80;3.50;;;26.70;50.80;;;;;;5096601;28;20409;-81
2022/07/31 03:25:03;;;;;;;3.63;3.33;;;26.70;50.80;;;;;;5091630;28;20432;-81
2022/07/31 03:27:32;;;;;;;4.07;3.77;;;26.70;50.80;;;;;;5078746;28;20437;-81
2022/07/31 03:30:03;;;;;;;4.00;3.70;;;26.70;50.80;;;;;;5079141;28;20456;-81
2022/07/31 03:32:31;;;;;;;4.60;3.97;;;26.70;50.80;;;;;;5079166;28;20397;-81
2022/07/31 03:35:20;;;;;;;4.03;3.73;;;26.70;50.80;;;;;;5111302;28;20413;-82
2022/07/31 03:37:48;;;;;;;4.00;3.60;;;26.70;50.70;;;;;;5078482;28;20443;-82
2022/07/31 03:40:15;;;;;;;3.97;3.67;;;26.70;50.80;;;;;;5078066;28;20416;-82
2022/07/31 03:42:48;;;;;;;4.20;3.80;;;26.70;50.70;;;;;;5096116;28;20407;-82
2022/07/31 03:45:21;;;;;;;4.20;3.90;;;26.70;50.70;;;;;;5095467;28;20397;-82
2022/07/31 03:47:51;;;;;;;4.03;3.70;;;26.60;50.60;;;;;;5078109;28;20459;-81
2022/07/31 03:50:36;;;;;;;3.90;3.53;;;26.60;50.60;;;;;;5078199;28;20452;-82
2022/07/31 03:53:06;;;;;;;3.87;3.57;;;26.60;50.60;;;;;;5095837;28;20404;-82
2022/07/31 03:59:34;;;;;;;4.00;3.70;;;26.60;50.50;;;;;;5074526;28;20405;-82
2022/07/31 04:02:02;;;;;;;3.87;3.57;;;26.60;50.60;;;;;;5074247;28;20452;-82
2022/07/31 04:04:32;;;;;;;4.17;3.87;;;26.60;50.60;;;;;;5040359;28;20414;-82
2022/07/31 04:06:59;;;;;;;3.87;3.57;;;26.60;50.60;;;;;;5057040;28;20414;-82
2022/07/31 04:09:28;;;;;;;3.47;3.17;;;26.60;50.50;;;;;;5071790;28;20457;-82
2022/07/31 04:11:58;;;;;;;3.67;3.37;;;26.60;50.50;;;;;;5056976;28;20696;-82
2022/07/31 04:14:41;;;;;;;3.13;2.90;;;26.60;50.50;;;;;;5073327;28;20405;-82
2022/07/31 04:17:14;;;;;;;2.97;2.77;;;26.60;50.40;;;;;;5073554;28;20413;-82
2022/07/31 04:19:41;;;;;;;4.07;3.77;;;26.60;50.40;;;;;;5041219;28;20452;-82
2022/07/31 04:22:13;;;;;;;3.27;3.03;;;26.50;50.30;;;;;;5073937;28;20401;-81
2022/07/31 04:24:40;;;;;;;3.40;2.80;;;26.50;50.30;;;;;;5073897;28;20417;-81
2022/07/31 04:27:08;;;;;;;3.77;3.47;;;26.50;50.30;;;;;;5056207;28;20420;-81
2022/07/31 04:29:35;;;;;;;3.27;3.00;;;26.50;50.20;;;;;;5056975;28;20696;-81
2022/07/31 04:32:12;;;;;;;3.50;3.20;;;26.50;50.80;;;;;;5073839;28;20436;-81
2022/07/31 04:34:42;;;;;;;3.23;2.93;;;26.50;50.20;;;;;;5040365;28;20452;-80
2022/07/31 04:37:11;;;;;;;3.40;3.10;;;26.50;50.20;;;;;;5057065;28;20413;-80
2022/07/31 04:39:38;;;;;;;3.57;3.27;;;26.50;50.20;;;;;;5040301;28;20429;-80
2022/07/31 04:42:10;;;;;;;3.63;3.33;;;26.50;50.20;;;;;;5056768;28;20517;-80
2022/07/31 04:45:00;;;;;;;4.00;3.60;;;26.50;50.20;;;;;;5048571;28;20419;-79
2022/07/31 04:47:31;;;;;;;3.80;3.50;;;26.50;50.20;;;;;;5090843;28;20446;-79
2022/07/31 04:49:59;;;;;;;4.13;3.83;;;26.50;50.20;;;;;;5077250;28;20460;-79
2022/07/31 04:52:34;;;;;;;4.87;4.30;;;26.50;50.30;;;;;;5072809;28;20425;-80
2022/07/31 04:55:07;;;;;;;4.07;3.67;;;26.50;50.30;;;;;;5086318;28;20507;-80
2022/07/31 04:57:35;;;;;;;4.00;3.60;;;26.50;50.30;;;;;;5070530;28;20412;-80
2022/07/31 05:00:09;;;;;;;4.77;4.20;;;26.50;50.30;;;;;;5077283;28;20409;-80
2022/07/31 05:02:35;;;;;;;4.40;4.00;;;26.50;50.30;;;;;;5086793;28;20416;-80
2022/07/31 05:05:05;;;;;;;4.10;3.70;;;26.50;50.30;;;;;;5094984;28;20412;-80
2022/07/31 05:07:36;;;;;;;3.83;3.53;;;26.50;50.30;;;;;;5089940;28;20432;-80
2022/07/31 05:13:09;;;;;;;4.43;4.13;;;26.50;50.40;;;;;;5045574;28;20410;-80
2022/07/31 05:15:38;;;;;;;4.57;4.17;;;26.50;50.40;;;;;;5069918;28;20420;-80
2022/07/31 05:18:06;;;;;;;5.30;4.80;;;26.50;50.40;;;;;;5077020;28;20426;-79
2022/07/31 05:20:34;;;;;;;4.90;4.50;;;26.40;50.40;;;;;;5111802;28;20413;-80
2022/07/31 05:23:47;;;;;;;4.40;4.03;;;26.50;50.40;;;;;;5075132;28;20440;-80
2022/07/31 05:26:19;;;;;;;4.47;4.07;;;26.50;50.50;;;;;;5078503;28;20420;-80
2022/07/31 05:28:48;;;;;;;4.30;3.90;;;26.40;50.40;;;;;;5097123;28;20433;-79
2022/07/31 05:31:24;;;;;;;4.30;3.93;;;26.40;50.50;;;;;;5093798;28;20443;-79
2022/07/31 05:33:54;;;;;;;5.10;4.70;;;26.40;50.50;;;;;;5088244;28;20416;-80
2022/07/31 05:36:25;;;;;;;4.30;4.00;;;26.40;50.50;;;;;;5080793;28;20425;-81
2022/07/31 05:38:54;;;;;;;4.43;4.10;;;26.40;50.50;;;;;;5097952;28;20463;-80
2022/07/31 05:41:32;;;;;;;5.40;4.93;;;26.40;50.60;;;;;;5066956;28;20412;-80
2022/07/31 05:43:59;;;;;;;4.70;4.30;;;26.40;50.60;;;;;;5084706;28;20440;-80
2022/07/31 05:46:29;;;;;;;6.53;4.97;;;26.40;50.60;;;;;;5073883;28;20411;-80
2022/07/31 05:49:02;;;;;;;5.27;4.77;;;26.40;50.60;;;;;;5079895;28;20491;-80
2022/07/31 05:51:29;;;;;;;5.50;5.00;;;26.40;50.70;;;;;;5079988;28;20453;-80
2022/07/31 05:54:01;;;;;;;4.80;4.40;;;26.40;50.60;;;;;;5074433;28;20442;-80
2022/07/31 05:56:30;;;;;;;6.53;5.40;;;26.40;50.70;;;;;;5094437;28;20425;-80
2022/07/31 05:58:58;;;;;;;5.30;4.80;;;26.40;50.70;;;;;;5078985;28;20484;-80
2022/07/31 06:01:30;;;;;;;5.00;4.57;;;26.40;50.70;;;;;;5087863;28;20427;-79
2022/07/31 06:04:02;;;;;;;5.30;4.80;;;26.40;50.80;;;;;;5079406;28;20515;-80
2022/07/31 06:06:30;;;;;;;5.40;4.90;;;26.40;50.80;;;;;;5086278;28;20421;-79
2022/07/31 06:09:00;;;;;;;6.20;5.60;;;26.40;50.80;;;;;;5070412;28;20552;-80
2022/07/31 06:11:26;;;;;;;5.10;4.57;;;26.40;50.80;;;;;;5079271;28;20490;-81
2022/07/31 06:13:52;;;;;;;5.67;5.17;;;26.40;50.80;;;;;;5074388;28;20433;-80
2022/07/31 06:16:20;;;;;;;7.53;5.30;;;26.40;50.90;;;;;;5078794;28;20416;-80
2022/07/31 06:18:46;;;;;;;5.67;5.13;;;26.40;50.90;;;;;;5076477;28;20428;-80
2022/07/31 06:21:13;;;;;;;5.97;5.43;;;26.40;50.90;;;;;;5086241;28;20417;-80
2022/07/31 06:23:41;;;;;;;6.23;5.50;;;26.40;51.00;;;;;;5096394;28;20488;-80
2022/07/31 06:26:08;;;;;;;6.27;5.77;;;26.40;51.00;;;;;;5079159;28;20413;-81
2022/07/31 06:28:36;;;;;;;6.33;5.83;;;26.50;51.10;;;;;;5078928;28;20484;-80
2022/07/31 06:31:02;;;;;;;6.23;5.67;;;26.40;51.10;;;;;;5079363;28;20447;-80
2022/07/31 06:33:28;;;;;;;6.47;5.87;;;26.40;51.10;;;;;;5080010;28;20484;-80
2022/07/31 06:35:55;;;;;;;6.40;5.80;;;26.40;51.10;;;;;;5079331;28;20708;-80
2022/07/31 06:38:29;;;;;;;6.10;5.50;;;26.40;51.10;;;;;;5097317;28;20463;-80
2022/07/31 06:40:55;;;;;;;6.30;5.70;;;26.50;51.20;;;;;;5078783;28;20409;-80
2022/07/31 06:43:24;;;;;;;7.20;6.43;;;26.40;51.20;;;;;;5096530;28;20434;-80
2022/07/31 06:45:55;;;;;;;6.47;5.97;;;26.40;51.30;;;;;;5078612;28;20421;-81
2022/07/31 06:48:21;;;;;;;6.53;5.93;;;26.50;51.30;;;;;;5078484;28;20413;-80
2022/07/31 06:50:49;;;;;;;6.70;6.20;;;26.50;51.40;;;;;;5079395;28;20515;-81
2022/07/31 06:53:16;;;;;;;6.80;6.20;;;26.40;51.30;;;;;;5063495;28;20417;-80
2022/07/31 06:55:43;;;;;;;6.67;6.10;;;26.50;51.40;;;;;;5086491;28;20448;-80
2022/07/31 06:58:09;;;;;;;6.80;6.20;;;26.50;51.40;;;;;;5057053;28;20420;-80
2022/07/31 07:00:40;;;;;;;6.23;5.73;;;26.50;51.40;;;;;;5078648;28;20484;-79
2022/07/31 07:03:07;;;;;;;6.53;5.93;;;26.50;51.50;;;;;;5078577;28;20417;-80
2022/07/31 07:05:33;;;;;;;8.13;6.30;;;26.50;51.50;;;;;;5078527;28;20413;-79
2022/07/31 07:08:00;;;;;;;6.60;6.10;;;26.50;51.50;;;;;;5077932;28;20408;-80
2022/07/31 07:10:32;;;;;;;6.43;5.93;;;26.50;51.60;;;;;;5079262;28;20507;-80
2022/07/31 07:13:11;;;;;;;5.50;5.10;;;26.50;51.50;;;;;;5096101;28;20392;-80
2022/07/31 07:15:43;;;;;;;6.50;5.87;;;26.50;51.60;;;;;;5078907;28;20720;-81
2022/07/31 07:18:15;;;;;;;6.20;5.70;;;26.50;51.70;;;;;;5096453;28;20404;-81
2022/07/31 07:20:52;;;;;;;6.17;5.67;;;26.50;51.70;;;;;;5095451;28;20404;-80
2022/07/31 07:23:20;;;;;;;5.47;5.07;;;26.50;51.70;;;;;;5078829;28;20439;-80
2022/07/31 07:25:59;;;;;;;6.23;5.57;;;26.50;51.80;;;;;;5056531;28;20396;-80
2022/07/31 07:28:32;;;;;;;5.47;5.07;;;26.50;51.90;;;;;;5096956;28;20405;-80
2022/07/31 07:31:02;;;;;;;5.43;5.03;;;26.50;51.80;;;;;;5079172;28;20435;-81
2022/07/31 07:33:31;;;;;;;5.80;5.30;;;26.50;51.90;;;;;;5063994;28;20420;-80
2022/07/31 07:36:08;;;;;;;5.50;5.10;;;26.50;51.90;;;;;;5097407;28;20395;-80
2022/07/31 07:38:57;;;;;;;6.27;5.73;;;26.50;51.90;;;;;;5082026;28;20424;-81
2022/07/31 07:41:27;;;;;;;5.53;5.13;;;26.50;52.00;;;;;;5079603;28;20401;-80
2022/07/31 07:44:01;;;;;;;6.00;5.53;;;26.50;52.00;;;;;;5078746;28;20412;-80
2022/07/31 07:46:50;;;;;;;5.97;5.47;;;26.50;52.10;;;;;;5058902;28;20415;-81
2022/07/31 07:49:29;;;;;;;5.57;5.17;;;26.50;52.20;;;;;;5096355;28;20456;-81
2022/07/31 07:52:01;;;;;;;6.00;5.50;;;26.50;52.00;;;;;;5076671;28;20446;-81
2022/07/31 07:54:30;;;;;;;6.27;5.67;;;26.60;52.10;;;;;;5078685;28;20400;-81
2022/07/31 07:57:03;;;;;;;6.57;5.90;;;26.50;52.00;;;;;;5078855;28;20405;-81
2022/07/31 07:59:48;;;;;;;5.20;4.80;;;26.60;52.10;;;;;;5094883;28;20510;-81
2022/07/31 08:02:25;;;;;;;4.97;4.57;;;26.60;52.10;;;;;;5096107;28;20405;-80
2022/07/31 08:04:58;;;;;;;5.63;5.10;;;26.60;52.20;;;;;;5076914;28;20412;-80
2022/07/31 08:07:34;;;;;;;5.20;4.80;;;26.60;52.20;;;;;;5078195;28;20412;-82
2022/07/31 08:10:02;;;;;;;5.17;4.67;;;26.60;52.20;;;;;;5076190;28;20460;-83
2022/07/31 08:12:28;;;;;;;4.60;4.20;;;26.60;52.10;;;;;;5077842;28;20453;-83
2022/07/31 08:14:58;;;;;;;5.13;4.70;;;26.60;52.10;;;;;;5077952;28;20427;-83
2022/07/31 08:17:27;;;;;;;4.73;4.33;;;26.60;52.20;;;;;;5093800;28;20405;-82
2022/07/31 08:19:56;;;;;;;5.13;4.70;;;26.60;52.20;;;;;;5076081;28;20550;-82
2022/07/31 08:22:25;;;;;;;4.90;4.50;;;26.60;52.10;;;;;;5095406;28;20432;-82
2022/07/31 08:24:53;;;;;;;4.90;4.50;;;26.60;52.10;;;;;;5076284;28;20409;-82
2022/07/31 08:27:29;;;;;;;4.70;4.30;;;26.60;52.10;;;;;;5077419;28;20413;-81
2022/07/31 08:29:59;;;;;;;4.83;4.43;;;26.60;52.20;;;;;;5074166;28;20483;-81
2022/07/31 08:32:29;;;;;;;4.37;3.97;;;26.60;52.10;;;;;;5077280;28;20416;-80
2022/07/31 08:35:01;;;;;;;4.90;4.50;;;26.60;52.20;;;;;;5095547;28;20397;-82
2022/07/31 08:37:29;;;;;;;5.13;4.73;;;26.60;52.00;;;;;;5077836;28;20401;-81
2022/07/31 08:39:57;;;;;;;4.30;4.00;;;26.60;52.00;;;;;;5095003;28;20416;-80
2022/07/31 08:42:35;;;;;;;4.77;4.37;;;26.60;52.00;;;;;;5078351;28;20420;-80
2022/07/31 08:45:09;;;;;;;4.77;4.37;;;26.60;52.00;;;;;;5075077;28;20419;-80
2022/07/31 08:47:45;;;;;;;5.00;4.60;;;26.60;51.90;;;;;;5095623;28;20385;-80
2022/07/31 08:50:18;;;;;;;4.90;4.37;;;26.70;52.10;;;;;;5094581;28;20502;-80
2022/07/31 08:52:48;;;;;;;4.83;4.40;;;26.70;51.90;;;;;;5060838;28;20523;-80
2022/07/31 08:55:25;;;;;;;4.90;4.50;;;26.70;51.90;;;;;;5074208;28;20454;-81
2022/07/31 08:57:53;;;;;;;5.07;4.57;;;26.70;51.90;;;;;;5076564;28;20409;-81
2022/07/31 09:00:32;;;;;;;4.40;4.07;;;26.70;52.00;;;;;;5078101;28;20412;-81
2022/07/31 09:03:00;;;;;;;4.90;4.47;;;26.70;51.90;;;;;;5060845;28;20425;-81
2022/07/31 09:05:37;;;;;;;4.63;4.27;;;26.70;51.90;;;;;;5069449;28;20417;-81
2022/07/31 09:08:09;;;;;;;4.57;4.27;;;26.70;51.90;;;;;;5076915;28;20416;-81
2022/07/31 09:10:36;;;;;;;4.13;3.80;;;26.70;51.80;;;;;;5091806;28;20460;-81
2022/07/31 09:13:15;;;;;;;4.93;4.57;;;26.70;51.80;;;;;;5075567;28;20413;-81
2022/07/31 09:15:43;;;;;;;6.30;3.87;;;26.70;51.70;;;;;;5075664;28;20413;-81
2022/07/31 09:18:21;;;;;;;4.50;4.17;;;26.70;51.50;;;;;;5076089;28;20405;-81
2022/07/31 09:20:59;;;;;;;4.00;3.70;;;26.70;51.40;;;;;;5073403;28;20439;-81
2022/07/31 09:23:29;;;;;;;5.07;4.27;;;26.70;51.30;;;;;;5075794;28;20424;-82
2022/07/31 09:26:07;;;;;;;3.63;3.33;;;26.70;51.40;;;;;;5075518;28;20417;-82
2022/07/31 09:28:57;;;;;;;4.37;3.97;;;26.60;51.50;;;;;;5074981;28;20408;-83
2022/07/31 09:31:33;;;;;;;5.23;4.73;;;26.70;51.50;;;;;;5074669;28;20449;-83
2022/07/31 09:34:02;;;;;;;4.43;4.03;;;26.60;51.30;;;;;;5093253;28;20393;-82
2022/07/31 09:36:31;;;;;;;3.93;3.63;;;26.70;51.30;;;;;;5074999;28;20409;-82
2022/07/31 09:39:03;;;;;;;4.30;4.00;;;26.70;51.20;;;;;;5091753;28;20409;-81
2022/07/31 09:41:33;;;;;;;4.27;3.90;;;26.70;51.20;;;;;;5070020;28;20477;-83
2022/07/31 09:44:03;;;;;;;4.30;4.00;;;26.70;51.10;;;;;;5058136;28;20413;-82
2022/07/31 09:46:49;;;;;;;4.30;3.90;;;26.70;51.20;;;;;;5093050;28;20476;-82
2022/07/31 09:49:16;;;;;;;4.73;4.37;;;26.70;51.30;;;;;;5074962;28;20449;-83
2022/07/31 09:51:49;;;;;;;4.07;3.77;;;26.70;51.20;;;;;;5092709;28;20377;-82
2022/07/31 09:54:35;;;;;;;3.93;3.63;;;26.70;51.30;;;;;;5075506;28;20431;-83
2022/07/31 09:57:17;;;;;;;3.77;3.30;;;26.70;51.20;;;;;;5060281;28;20408;-82
2022/07/31 09:59:45;;;;;;;4.00;3.70;;;26.70;51.20;;;;;;5073940;28;20467;-81
2022/07/31 10:02:16;;;;;;;4.60;4.20;;;26.70;51.10;;;;;;5090340;28;20432;-80
2022/07/31 10:04:43;;;;;;;4.20;3.87;;;26.70;50.80;;;;;;5075476;28;20436;-79
2022/07/31 10:07:21;;;;;;;4.70;4.30;;;26.70;50.80;;;;;;5076481;28;20417;-81
2022/07/31 10:09:47;;;;;;;4.20;3.80;;;26.70;50.80;;;;;;5076162;28;20447;-81
2022/07/31 10:12:18;;;;;;;4.67;4.27;;;26.70;50.90;;;;;;5075771;28;20434;-80
2022/07/31 10:15:05;;;;;;;4.10;3.80;;;26.70;50.80;;;;;;5076638;28;20417;-80
2022/07/31 10:17:35;;;;;;;7.37;4.00;;;26.70;50.80;;;;;;5076324;28;20416;-79
2022/07/31 10:20:05;;;;;;;3.97;3.67;;;26.70;50.80;;;;;;5068384;28;20461;-80
2022/07/31 10:22:40;;;;;;;3.90;3.50;;;26.70;50.80;;;;;;5068875;28;20405;-80
2022/07/31 10:25:13;;;;;;;4.17;3.87;;;26.70;50.70;;;;;;5072125;28;20466;-79
2022/07/31 10:27:43;;;;;;;4.40;4.00;;;26.70;50.70;;;;;;5054911;28;20426;-80
2022/07/31 10:30:17;;;;;;;3.70;3.47;;;26.70;50.60;;;;;;5076918;28;20488;-81
2022/07/31 10:32:57;;;;;;;4.10;3.60;;;26.70;50.60;;;;;;5075797;28;20454;-83
2022/07/31 10:35:42;;;;;;;4.20;3.80;;;26.70;50.70;;;;;;5067910;28;20429;-81
2022/07/31 10:38:35;;;;;;;4.07;3.60;;;26.70;50.70;;;;;;5070954;28;20443;-80
2022/07/31 10:41:11;;;;;;;3.20;3.00;;;26.70;50.30;;;;;;5071043;28;20417;-81
2022/07/31 10:43:59;;;;;;;4.50;3.70;;;26.70;50.40;;;;;;5075787;28;20451;-80
2022/07/31 10:46:34;;;;;;;4.23;3.83;;;26.80;50.30;;;;;;5083782;28;20420;-81
2022/07/31 10:49:03;;;;;;;3.80;3.50;;;26.80;50.20;;;;;;5056721;28;20453;-81
2022/07/31 10:51:31;;;;;;;3.73;3.43;;;26.80;50.30;;;;;;5069740;28;20425;-80
2022/07/31 10:54:10;;;;;;;4.30;3.90;;;26.80;50.30;;;;;;5079473;28;20409;-81
2022/07/31 10:56:42;;;;;;;4.43;3.10;;;26.80;50.20;;;;;;5077789;28;20408;-80
2022/07/31 10:59:12;;;;;;;6.13;3.37;;;26.70;50.30;;;;;;5077985;28;20881;-80
2022/07/31 11:01:51;;;;;;;4.50;3.20;;;26.80;50.40;;;;;;5061497;28;20451;-80
2022/07/31 11:04:31;;;;;;;3.67;3.37;;;26.80;50.30;;;;;;5060367;28;20508;-80
2022/07/31 11:07:02;;;;;;;4.43;3.83;;;26.80;50.30;;;;;;5077799;28;20412;-81
2022/07/31 11:09:31;;;;;;;4.33;3.93;;;26.80;50.30;;;;;;5077477;28;20452;-80
2022/07/31 11:11:59;;;;;;;3.87;3.57;;;26.80;50.30;;;;;;5076992;28;20415;-81
2022/07/31 11:14:38;;;;;;;4.00;3.70;;;26.80;50.30;;;;;;5075725;28;20515;-80
2022/07/31 11:17:04;;;;;;;3.50;3.20;;;26.80;50.20;;;;;;5077221;28;20476;-80
2022/07/31 11:19:46;;;;;;;3.80;3.50;;;26.80;50.20;;;;;;5077405;28;20413;-80
2022/07/31 11:22:16;;;;;;;3.70;3.40;;;26.80;50.10;;;;;;5077606;28;20405;-81
2022/07/31 11:25:11;;;;;;;5.30;4.03;;;26.80;50.10;;;;;;5094301;28;20480;-80
2022/07/31 11:27:45;;;;;;;3.27;3.07;;;26.80;50.10;;;;;;5061709;28;20452;-81
2022/07/31 11:30:12;;;;;;;3.53;3.23;;;26.80;50.10;;;;;;5076741;28;20439;-81
2022/07/31 11:32:48;;;;;;;3.60;3.30;;;26.80;50.10;;;;;;5076979;28;20550;-80
2022/07/31 11:35:30;;;;;;;3.43;3.23;;;26.80;50.10;;;;;;5076747;28;20490;-81
2022/07/31 11:37:59;;;;;;;3.57;3.27;;;26.80;50.00;;;;;;5078165;28;20464;-81
2022/07/31 11:40:26;;;;;;;3.67;3.37;;;26.80;50.00;;;;;;5094118;28;20417;-81
2022/07/31 11:43:00;;;;;;;3.93;3.63;;;26.80;49.80;;;;;;5076548;28;20909;-81
2022/07/31 11:45:32;;;;;;;3.70;3.00;;;26.80;49.70;;;;;;5075625;28;20420;-81
2022/07/31 11:48:00;;;;;;;3.10;2.90;;;26.80;49.60;;;;;;5075387;28;20413;-80
2022/07/31 11:50:53;;;;;;;3.20;3.00;;;26.90;49.40;;;;;;5075907;28;20448;-81
2022/07/31 11:53:20;;;;;;;3.50;3.10;;;26.80;49.40;;;;;;5062902;28;20428;-80
2022/07/31 11:56:02;;;;;;;3.40;3.20;;;26.80;49.40;;;;;;5093517;28;20417;-81
2022/07/31 11:58:32;;;;;;;3.03;2.83;;;26.80;49.40;;;;;;5093297;28;20393;-81
2022/07/31 12:01:04;;;;;;;4.40;3.10;;;26.80;49.50;;;;;;5075578;28;20509;-81
2022/07/31 12:03:33;;;;;;;3.70;3.40;;;26.80;49.20;;;;;;5093784;28;20397;-81
2022/07/31 12:06:00;;;;;;;3.37;3.10;;;26.80;49.20;;;;;;5058688;28;20417;-81
2022/07/31 12:08:26;;;;;;;2.80;2.60;;;26.80;49.20;;;;;;5093514;28;20400;-81
2022/07/31 12:10:58;;;;;;;2.93;2.70;;;26.80;49.10;;;;;;5075165;28;20440;-81
2022/07/31 12:13:25;;;;;;;2.93;2.63;;;26.80;49.10;;;;;;5074481;28;20425;-81
2022/07/31 12:16:06;;;;;;;2.90;2.70;;;26.80;49.20;;;;;;5075488;28;20389;-81
2022/07/31 12:18:57;;;;;;;3.63;2.83;;;26.90;49.10;;;;;;5093743;28;20392;-81
2022/07/31 12:21:40;;;;;;;2.60;2.40;;;26.90;49.00;;;;;;5075486;28;20405;-81
2022/07/31 12:24:21;;;;;;;3.50;3.00;;;26.80;49.00;;;;;;5075567;28;20401;-81
2022/07/31 12:26:59;;;;;;;2.63;2.43;;;26.80;49.00;;;;;;5093244;28;20381;-81
2022/07/31 12:29:38;;;;;;;2.37;2.17;;;26.90;49.20;;;;;;5092956;28;20440;-80
2022/07/31 12:32:05;;;;;;;2.60;2.40;;;26.80;48.90;;;;;;5073929;28;20412;-81
2022/07/31 12:34:40;;;;;;;2.53;2.33;;;26.80;48.80;;;;;;5092869;28;20460;-79
2022/07/31 12:37:15;;;;;;;2.80;2.40;;;26.80;49.00;;;;;;5066289;28;20420;-80
2022/07/31 12:40:06;;;;;;;2.73;2.53;;;26.80;48.70;;;;;;5075211;28;20722;-82
2022/07/31 12:42:38;;;;;;;3.20;2.47;;;26.80;48.50;;;;;;5075081;28;20417;-79
2022/07/31 12:45:05;;;;;;;2.77;2.57;;;26.80;48.60;;;;;;5075200;28;20404;-80
2022/07/31 12:47:36;;;;;;;3.00;2.77;;;26.80;48.60;;;;;;5074618;28;20440;-80
2022/07/31 12:50:11;;;;;;;3.63;2.70;;;26.80;48.60;;;;;;5075476;28;20456;-80
2022/07/31 12:52:38;;;;;;;2.27;2.07;;;26.80;48.50;;;;;;5074731;28;20474;-80
2022/07/31 12:55:06;;;;;;;4.20;2.43;;;26.90;48.70;;;;;;5057655;28;20497;-80
2022/07/31 12:57:33;;;;;;;3.17;2.87;;;26.90;48.70;;;;;;5057795;28;20474;-80
2022/07/31 13:00:03;;;;;;;3.00;2.70;;;26.90;48.60;;;;;;5092346;28;20407;-81
2022/07/31 13:02:32;;;;;;;3.30;2.50;;;26.90;48.50;;;;;;5058199;28;20420;-80
2022/07/31 13:04:59;;;;;;;3.33;2.43;;;26.90;48.50;;;;;;5074439;28;20515;-80
2022/07/31 13:07:27;;;;;;;3.13;2.83;;;26.90;48.40;;;;;;5092521;28;20417;-80
2022/07/31 13:09:56;;;;;;;3.17;2.90;;;26.90;48.20;;;;;;5092378;28;20444;-79
2022/07/31 13:12:25;;;;;;;2.70;2.50;;;26.90;48.30;;;;;;5092129;28;20392;-80
2022/07/31 13:14:57;;;;;;;2.97;2.70;;;26.90;48.40;;;;;;5058208;28;20855;-80
2022/07/31 13:17:31;;;;;;;3.13;2.83;;;26.90;48.30;;;;;;5089918;28;20416;-80
2022/07/31 13:20:00;;;;;;;2.60;2.40;;;26.90;48.30;;;;;;5074935;28;20420;-81
2022/07/31 13:22:35;;;;;;;3.43;2.90;;;26.90;48.30;;;;;;5091940;28;20401;-81